createdAt,value
2022-08-23T00:00:19.719Z,1.90
2022-08-23T00:02:47.488Z,2.47
2022-08-23T00:05:16.208Z,2.75
2022-08-23T00:07:45.486Z,3.17
2022-08-23T00:10:16.410Z,5.10
2022-08-23T00:12:44.866Z,6.50
2022-08-23T00:15:15.370Z,8.07
2022-08-23T00:17:43.786Z,7.25
2022-08-23T00:20:15.066Z,7.70
2022-08-23T00:22:43.931Z,9.13
2022-08-23T00:25:13.939Z,8.32
2022-08-23T00:27:41.904Z,7.60
2022-08-23T00:30:12.314Z,6.82
2022-08-23T00:32:41.730Z,7.25
2022-08-23T00:35:11.070Z,6.90
2022-08-23T00:37:39.145Z,5.60
2022-08-23T00:40:11.055Z,4.28
2022-08-23T00:43:06.265Z,3.25
2022-08-23T00:45:58.241Z,2.17
2022-08-23T00:48:26.424Z,1.65
2022-08-23T00:51:01.237Z,2.17
2022-08-23T00:53:32.422Z,1.98
2022-08-23T00:56:04.714Z,1.92
2022-08-23T00:58:32.600Z,1.65
2022-08-23T01:01:03.455Z,1.75
2022-08-23T01:03:38.610Z,1.77
2022-08-23T01:06:11.747Z,1.75
2022-08-23T01:08:42.642Z,2.05
2022-08-23T01:11:17.686Z,2.40
2022-08-23T01:13:51.866Z,2.50
2022-08-23T01:18:50.948Z,1.90
2022-08-23T01:21:25.865Z,2.38
2022-08-23T01:23:58.519Z,2.33
2022-08-23T01:26:27.566Z,2.25
2022-08-23T01:28:56.456Z,1.92
2022-08-23T01:31:25.420Z,1.67
2022-08-23T01:33:59.175Z,1.70
2022-08-23T01:36:27.457Z,1.95
2022-08-23T01:38:56.209Z,2.00
2022-08-23T01:41:23.640Z,2.05
2022-08-23T01:43:51.863Z,2.40
2022-08-23T01:46:22.897Z,2.28
2022-08-23T01:48:51.388Z,1.90
2022-08-23T01:51:21.013Z,2.00
2022-08-23T01:53:48.698Z,1.92
2022-08-23T01:56:19.865Z,1.45
2022-08-23T01:58:55.209Z,1.73
2022-08-23T02:01:22.672Z,1.60
2022-08-23T02:03:50.282Z,1.63
2022-08-23T02:06:31.984Z,1.25
2022-08-23T02:09:03.358Z,1.30
2022-08-23T02:11:35.365Z,1.40
2022-08-23T02:14:07.427Z,1.10
2022-08-23T02:16:37.861Z,1.17
2022-08-23T02:19:08.355Z,1.25
2022-08-23T02:21:37.110Z,1.70
2022-08-23T02:24:06.716Z,1.65
2022-08-23T02:26:37.198Z,1.92
2022-08-23T02:29:05.743Z,2.28
2022-08-23T02:31:33.349Z,1.70
2022-08-23T02:36:46.705Z,2.90
2022-08-23T02:39:16.266Z,3.45
2022-08-23T02:41:45.332Z,3.75
2022-08-23T02:44:14.017Z,3.38
2022-08-23T02:46:42.444Z,3.67
2022-08-23T02:49:10.004Z,5.03
2022-08-23T02:51:37.870Z,6.20
2022-08-23T02:54:06.124Z,6.45
2022-08-23T02:56:34.480Z,5.95
2022-08-23T02:59:04.095Z,4.95
2022-08-23T03:01:33.340Z,3.53
2022-08-23T03:04:02.016Z,2.28
2022-08-23T03:06:29.543Z,2.05
2022-08-23T03:08:57.524Z,2.60
2022-08-23T03:11:26.555Z,3.15
2022-08-23T03:13:56.263Z,4.15
2022-08-23T03:16:25.918Z,4.65
2022-08-23T03:18:53.861Z,5.10
2022-08-23T03:21:22.414Z,4.88
2022-08-23T03:23:50.213Z,3.28
2022-08-23T03:26:18.099Z,2.60
2022-08-23T03:28:46.025Z,2.13
2022-08-23T03:31:14.947Z,1.80
2022-08-23T03:33:43.868Z,2.10
2022-08-23T03:36:13.167Z,2.35
2022-08-23T03:38:41.672Z,2.53
2022-08-23T03:41:10.254Z,2.35
2022-08-23T03:43:38.385Z,2.40
2022-08-23T03:46:08.005Z,2.90
2022-08-23T03:48:35.624Z,3.20
2022-08-23T03:51:04.687Z,3.63
2022-08-23T03:53:32.080Z,2.78
2022-08-23T03:55:59.472Z,2.92
2022-08-23T03:58:29.617Z,2.38
2022-08-23T04:00:57.762Z,2.63
2022-08-23T04:03:25.620Z,3.08
2022-08-23T04:05:53.036Z,3.28
2022-08-23T04:08:33.633Z,3.10
2022-08-23T04:11:01.779Z,2.20
2022-08-23T04:13:29.556Z,2.83
2022-08-23T04:15:58.146Z,2.90
2022-08-23T04:18:25.599Z,2.50
2022-08-23T04:20:53.171Z,2.45
2022-08-23T04:23:20.565Z,1.83
2022-08-23T04:25:49.511Z,1.90
2022-08-23T04:28:16.949Z,1.70
2022-08-23T04:30:45.580Z,1.60
2022-08-23T04:33:18.363Z,1.80
2022-08-23T04:38:24.507Z,1.80
2022-08-23T04:41:11.840Z,1.80
2022-08-23T04:43:39.476Z,1.98
2022-08-23T04:46:07.555Z,2.35
2022-08-23T04:48:35.468Z,2.40
2022-08-23T04:51:03.056Z,2.40
2022-08-23T04:53:30.460Z,2.50
2022-08-23T04:55:59.135Z,3.20
2022-08-23T04:58:27.356Z,3.45
2022-08-23T05:00:55.031Z,3.17
2022-08-23T05:03:22.438Z,2.50
2022-08-23T05:05:49.820Z,1.63
2022-08-23T05:08:17.202Z,1.80
2022-08-23T05:10:44.582Z,1.80
2022-08-23T05:13:13.311Z,1.98
2022-08-23T05:15:40.704Z,1.80
2022-08-23T05:18:08.207Z,1.90
2022-08-23T05:20:35.751Z,1.90
2022-08-23T05:23:03.329Z,2.15
2022-08-23T05:25:45.258Z,2.17
2022-08-23T05:28:14.064Z,2.35
2022-08-23T05:30:42.197Z,2.28
2022-08-23T05:33:20.433Z,2.95
2022-08-23T05:35:47.885Z,3.03
2022-08-23T05:38:18.950Z,3.70
2022-08-23T05:40:50.056Z,2.97
2022-08-23T05:43:24.716Z,2.90
2022-08-23T05:46:01.645Z,2.47
2022-08-23T05:48:31.938Z,2.95
2022-08-23T05:50:59.384Z,3.08
2022-08-23T05:53:26.855Z,3.22
2022-08-23T05:55:54.243Z,3.80
2022-08-23T05:58:21.656Z,3.35
2022-08-23T06:00:50.443Z,2.85
2022-08-23T06:03:17.834Z,2.58
2022-08-23T06:05:45.200Z,2.42
2022-08-23T06:08:12.621Z,2.38
2022-08-23T06:10:42.393Z,2.45
2022-08-23T06:13:10.329Z,2.10
2022-08-23T06:15:43.689Z,2.22
2022-08-23T06:18:13.551Z,2.33
2022-08-23T06:20:42.075Z,2.20
2022-08-23T06:23:11.213Z,1.83
2022-08-23T06:25:40.738Z,2.38
2022-08-23T06:28:08.416Z,2.33
2022-08-23T06:30:40.060Z,2.45
2022-08-23T06:33:08.165Z,2.25
2022-08-23T06:35:40.122Z,2.38
2022-08-23T06:38:07.752Z,2.83
2022-08-23T06:40:35.353Z,2.65
2022-08-23T06:43:04.511Z,2.10
2022-08-23T06:45:34.927Z,2.28
2022-08-23T06:48:03.006Z,2.20
2022-08-23T06:50:32.005Z,2.08
2022-08-23T06:53:01.417Z,2.05
2022-08-23T06:55:34.730Z,2.38
2022-08-23T06:58:03.287Z,2.25
2022-08-23T07:00:30.890Z,2.28
2022-08-23T07:02:58.391Z,2.22
2022-08-23T07:05:26.122Z,2.30
2022-08-23T07:07:54.565Z,2.40
2022-08-23T07:10:23.472Z,2.17
2022-08-23T07:12:50.979Z,2.58
2022-08-23T07:15:18.558Z,2.90
2022-08-23T07:17:45.939Z,4.70
2022-08-23T07:20:13.344Z,5.47
2022-08-23T07:22:40.975Z,5.75
2022-08-23T07:25:08.771Z,5.53
2022-08-23T07:27:37.524Z,6.55
2022-08-23T07:30:08.457Z,6.28
2022-08-23T07:32:35.881Z,5.72
2022-08-23T07:35:03.348Z,2.88
2022-08-23T07:37:30.920Z,2.35
2022-08-23T07:39:58.872Z,2.10
2022-08-23T07:42:26.356Z,1.98
2022-08-23T07:44:55.115Z,1.40
2022-08-23T07:47:23.125Z,1.75
2022-08-23T07:49:50.881Z,1.83
2022-08-23T07:52:18.495Z,2.50
2022-08-23T07:54:48.303Z,2.40
2022-08-23T07:57:16.559Z,2.35
2022-08-23T07:59:43.980Z,2.25
2022-08-23T08:02:12.725Z,2.20
2022-08-23T08:04:40.491Z,2.22
2022-08-23T08:07:19.441Z,2.63
2022-08-23T08:09:48.444Z,2.28
2022-08-23T08:12:15.882Z,2.53
2022-08-23T08:14:43.684Z,2.80
2022-08-23T08:17:11.144Z,2.95
2022-08-23T08:19:40.022Z,2.95
2022-08-23T08:22:07.440Z,3.13
2022-08-23T08:24:34.999Z,3.35
2022-08-23T08:27:02.757Z,3.40
2022-08-23T08:29:30.164Z,4.95
2022-08-23T08:31:57.681Z,5.63
2022-08-23T08:34:25.453Z,6.68
2022-08-23T08:36:58.376Z,6.85
2022-08-23T08:39:28.872Z,7.30
2022-08-23T08:42:11.303Z,8.68
2022-08-23T08:44:45.935Z,8.23
2022-08-23T08:47:18.220Z,9.00
2022-08-23T08:49:50.632Z,11.13
2022-08-23T08:52:25.059Z,9.93
2022-08-23T08:55:01.472Z,8.02
2022-08-23T08:57:33.696Z,8.68
2022-08-23T09:00:04.151Z,12.32
2022-08-23T09:02:35.664Z,10.77
2022-08-23T09:05:06.621Z,13.00
2022-08-23T09:07:46.377Z,11.95
2022-08-23T09:10:44.130Z,13.07
2022-08-23T09:13:31.238Z,10.98
2022-08-23T09:16:12.178Z,10.32
2022-08-23T09:18:40.011Z,7.75
2022-08-23T09:21:09.552Z,6.32
2022-08-23T09:23:43.071Z,3.15
2022-08-23T09:26:20.303Z,3.70
2022-08-23T09:28:47.983Z,4.97
2022-08-23T09:31:39.291Z,5.07
2022-08-23T09:34:07.695Z,5.95
2022-08-23T09:36:37.269Z,8.40
2022-08-23T09:39:08.544Z,8.93
2022-08-23T09:41:38.599Z,9.40
2022-08-23T09:44:09.396Z,9.02
2022-08-23T09:46:39.114Z,8.05
2022-08-23T09:49:27.898Z,8.60
2022-08-23T09:51:59.068Z,7.50
2022-08-23T09:54:32.042Z,7.93
2022-08-23T09:57:02.592Z,8.35
2022-08-23T09:59:40.946Z,7.45
2022-08-23T10:02:17.583Z,6.55
2022-08-23T10:04:57.334Z,5.90
2022-08-23T10:07:29.475Z,5.35
2022-08-23T10:10:15.980Z,5.75
2022-08-23T10:12:43.523Z,5.60
2022-08-23T10:15:11.395Z,6.18
2022-08-23T10:17:47.300Z,6.90
2022-08-23T10:20:23.062Z,7.28
2022-08-23T10:23:01.315Z,6.78
2022-08-23T10:25:36.738Z,7.53
2022-08-23T10:28:30.705Z,6.45
2022-08-23T10:31:09.998Z,4.82
2022-08-23T10:33:46.415Z,4.25
2022-08-23T10:36:19.358Z,5.60
2022-08-23T10:38:48.984Z,5.93
2022-08-23T10:41:31.118Z,5.20
2022-08-23T10:44:09.170Z,3.33
2022-08-23T10:46:42.443Z,3.22
2022-08-23T10:49:13.987Z,3.45
2022-08-23T10:51:44.375Z,3.83
2022-08-23T10:54:18.668Z,3.65
2022-08-23T10:59:23.957Z,3.40
2022-08-23T11:01:57.008Z,3.70
2022-08-23T11:04:31.723Z,3.47
2022-08-23T11:07:01.081Z,3.90
2022-08-23T11:09:47.764Z,2.55
2022-08-23T11:12:28.864Z,1.85
2022-08-23T11:15:10.183Z,3.17
2022-08-23T11:17:55.015Z,4.40
2022-08-23T11:21:00.587Z,3.55
2022-08-23T11:23:54.332Z,2.08
2022-08-23T11:27:05.835Z,2.15
2022-08-23T11:29:41.578Z,3.53
2022-08-23T11:32:29.811Z,3.67
2022-08-23T11:35:08.783Z,4.20
2022-08-23T11:37:53.282Z,4.90
2022-08-23T11:40:40.956Z,2.97
2022-08-23T11:43:12.668Z,1.90
2022-08-23T11:45:46.343Z,1.48
2022-08-23T11:48:19.108Z,1.52
2022-08-23T11:51:06.096Z,2.10
2022-08-23T11:53:52.421Z,1.92
2022-08-23T11:56:46.574Z,1.85
2022-08-23T11:59:38.542Z,1.92
2022-08-23T12:02:33.508Z,2.28
2022-08-23T12:05:06.889Z,1.70
2022-08-23T12:07:47.165Z,1.83
2022-08-23T12:10:17.827Z,2.00
2022-08-23T12:12:47.366Z,2.35
2022-08-23T12:15:17.957Z,2.40
2022-08-23T12:18:15.044Z,2.58
2022-08-23T12:20:48.511Z,1.75
2022-08-23T12:23:20.520Z,1.50
2022-08-23T12:25:59.443Z,1.70
2022-08-23T12:28:38.212Z,2.10
2022-08-23T12:31:16.414Z,1.50
2022-08-23T12:34:00.108Z,1.40
2022-08-23T12:36:37.179Z,1.52
2022-08-23T12:39:07.927Z,1.80
2022-08-23T12:41:51.944Z,1.92
2022-08-23T12:44:20.996Z,3.03
2022-08-23T12:46:50.486Z,3.88
2022-08-23T12:49:33.415Z,5.32
2022-08-23T12:52:03.744Z,4.43
2022-08-23T12:54:39.692Z,4.18
2022-08-23T12:57:11.617Z,3.53
2022-08-23T12:59:43.414Z,3.35
2022-08-23T13:02:15.924Z,3.00
2022-08-23T13:04:44.704Z,2.40
2022-08-23T13:07:18.023Z,2.05
2022-08-23T13:09:53.561Z,1.95
2022-08-23T13:12:23.647Z,1.98
2022-08-23T13:14:54.013Z,1.77
2022-08-23T13:17:31.366Z,2.13
2022-08-23T13:20:19.866Z,2.63
2022-08-23T13:23:03.463Z,2.33
2022-08-23T13:25:34.417Z,1.80
2022-08-23T13:28:05.692Z,1.90
2022-08-23T13:30:36.243Z,1.80
2022-08-23T13:33:22.086Z,1.85
2022-08-23T13:35:54.140Z,2.42
2022-08-23T13:38:25.516Z,2.92
2022-08-23T13:41:02.178Z,3.40
2022-08-23T13:43:35.887Z,2.90
2022-08-23T13:46:13.104Z,2.78
2022-08-23T13:48:47.660Z,2.25
2022-08-23T13:51:24.963Z,2.22
2022-08-23T13:53:52.427Z,2.70
2022-08-23T13:56:20.374Z,3.78
2022-08-23T13:58:56.423Z,3.53
2022-08-23T14:01:24.822Z,3.33
2022-08-23T14:03:52.581Z,3.25
2022-08-23T14:06:21.769Z,2.50
2022-08-23T14:08:49.201Z,1.90
2022-08-23T14:11:16.885Z,1.88
2022-08-23T14:13:46.815Z,2.28
2022-08-23T14:16:34.917Z,3.13
2022-08-23T14:20:31.348Z,2.53
2022-08-23T14:21:55.713Z,1.98
2022-08-23T14:24:23.107Z,2.25
2022-08-23T14:26:52.486Z,2.75
2022-08-23T14:29:22.493Z,4.03
2022-08-23T14:31:50.550Z,4.03
2022-08-23T14:34:18.059Z,3.63
2022-08-23T14:39:34.181Z,4.60
2022-08-23T14:42:01.633Z,4.35
2022-08-23T14:44:33.328Z,3.90
2022-08-23T14:47:03.938Z,4.22
2022-08-23T14:49:31.343Z,4.25
2022-08-23T14:51:58.896Z,3.65
2022-08-23T14:54:27.197Z,3.90
2022-08-23T14:56:56.049Z,5.50
2022-08-23T14:59:23.500Z,4.20
2022-08-23T15:01:53.439Z,5.38
2022-08-23T15:04:23.736Z,9.10
2022-08-23T15:07:16.598Z,9.18
2022-08-23T15:09:39.880Z,10.20
2022-08-23T15:14:59.851Z,6.13
2022-08-23T15:17:31.321Z,7.47
2022-08-23T15:19:59.597Z,9.18
2022-08-23T15:22:27.064Z,8.25
2022-08-23T15:24:54.489Z,10.60
2022-08-23T15:27:23.495Z,12.48
2022-08-23T15:29:50.966Z,11.10
2022-08-23T15:32:22.347Z,6.18
2022-08-23T15:34:50.448Z,2.38
2022-08-23T15:37:19.956Z,2.00
2022-08-23T15:39:47.499Z,3.33
2022-08-23T15:42:20.248Z,3.70
2022-08-23T15:44:49.597Z,5.63
2022-08-23T15:47:22.718Z,8.30
2022-08-23T15:49:50.601Z,2.85
2022-08-23T15:52:18.308Z,2.47
2022-08-23T15:54:45.742Z,4.10
2022-08-23T15:57:17.628Z,6.80
2022-08-23T15:59:45.543Z,7.78
2022-08-23T16:02:14.605Z,11.07
2022-08-23T16:04:42.107Z,10.98
2022-08-23T16:07:13.815Z,10.88
2022-08-23T16:09:41.759Z,10.50
2022-08-23T16:12:09.462Z,10.50
2022-08-23T16:14:38.475Z,9.63
2022-08-23T16:17:06.577Z,9.23
2022-08-23T16:19:35.669Z,9.02
2022-08-23T16:22:03.486Z,9.10
2022-08-23T16:24:30.884Z,11.20
2022-08-23T16:26:58.462Z,11.18
2022-08-23T16:29:28.590Z,12.02
2022-08-23T16:31:55.956Z,12.05
2022-08-23T16:34:23.395Z,9.70
2022-08-23T16:36:57.932Z,8.27
2022-08-23T16:39:26.796Z,9.77
2022-08-23T16:41:54.279Z,9.05
2022-08-23T16:44:22.244Z,11.02
2022-08-23T16:46:49.675Z,13.27
2022-08-23T16:49:18.517Z,13.13
2022-08-23T16:51:47.093Z,14.23
2022-08-23T16:54:18.468Z,13.25
2022-08-23T16:56:46.320Z,12.95
2022-08-23T16:59:14.673Z,13.55
2022-08-23T17:01:47.875Z,14.05
2022-08-23T17:04:15.771Z,12.68
2022-08-23T17:06:43.612Z,11.30
2022-08-23T17:09:12.086Z,10.25
2022-08-23T17:11:41.263Z,10.75
2022-08-23T17:14:08.761Z,11.75
2022-08-23T17:16:36.653Z,9.32
2022-08-23T17:19:04.576Z,10.70
2022-08-23T17:21:32.075Z,9.75
2022-08-23T17:23:59.900Z,10.45
2022-08-23T17:26:27.465Z,10.07
2022-08-23T17:28:57.278Z,10.52
2022-08-23T17:31:25.538Z,9.57
2022-08-23T17:33:52.960Z,10.13
2022-08-23T17:36:31.700Z,10.65
2022-08-23T17:38:59.139Z,10.68
2022-08-23T17:41:28.285Z,10.73
2022-08-23T17:43:58.051Z,10.00
2022-08-23T17:46:25.638Z,10.63
2022-08-23T17:48:53.139Z,10.40
2022-08-23T17:51:20.624Z,9.43
2022-08-23T17:53:48.035Z,9.98
2022-08-23T17:56:15.820Z,9.25
2022-08-23T17:58:43.329Z,9.68
2022-08-23T18:01:12.452Z,7.50
2022-08-23T18:03:45.257Z,6.15
2022-08-23T18:06:16.603Z,6.30
2022-08-23T18:08:45.271Z,7.50
2022-08-23T18:11:13.745Z,20.48
2022-08-23T18:13:41.263Z,32.17
2022-08-23T18:16:09.042Z,42.78
2022-08-23T18:18:38.213Z,41.80
2022-08-23T18:21:05.845Z,41.55
2022-08-23T18:23:33.236Z,38.30
2022-08-23T18:26:06.731Z,32.38
2022-08-23T18:28:33.310Z,24.52
2022-08-23T18:31:03.492Z,23.45
2022-08-23T18:33:46.693Z,15.15
2022-08-23T18:36:16.465Z,13.20
2022-08-23T18:38:43.943Z,12.18
2022-08-23T18:41:13.032Z,10.82
2022-08-23T18:43:41.457Z,10.95
2022-08-23T18:46:09.571Z,10.70
2022-08-23T18:48:37.393Z,10.05
2022-08-23T18:51:05.707Z,9.15
2022-08-23T18:53:45.102Z,8.32
2022-08-23T18:56:12.565Z,8.18
2022-08-23T18:58:39.945Z,7.32
2022-08-23T19:01:21.134Z,5.75
2022-08-23T19:03:48.653Z,4.53
2022-08-23T19:06:16.076Z,4.65
2022-08-23T19:08:44.956Z,5.22
2022-08-23T19:11:12.623Z,5.38
2022-08-23T19:13:40.288Z,5.55
2022-08-23T19:16:13.141Z,5.40
2022-08-23T19:18:40.818Z,5.45
2022-08-23T19:21:08.289Z,5.35
2022-08-23T19:23:36.376Z,4.47
2022-08-23T19:26:09.578Z,4.88
2022-08-23T19:28:37.519Z,4.45
2022-08-23T19:33:57.286Z,5.63
2022-08-23T19:36:45.131Z,6.07
2022-08-23T19:39:12.301Z,5.57
2022-08-23T19:41:41.946Z,6.13
2022-08-23T19:44:09.507Z,6.15
2022-08-23T19:46:41.112Z,6.05
2022-08-23T19:49:10.160Z,5.10
2022-08-23T19:51:38.307Z,4.75
2022-08-23T19:54:10.910Z,4.43
2022-08-23T19:56:43.235Z,4.45
2022-08-23T19:59:14.421Z,5.00
2022-08-23T20:01:42.151Z,6.05
2022-08-23T20:04:10.595Z,6.10
2022-08-23T20:06:38.287Z,5.68
2022-08-23T20:09:07.353Z,4.95
2022-08-23T20:11:35.346Z,3.40
2022-08-23T20:14:05.405Z,2.70
2022-08-23T20:16:33.970Z,2.33
2022-08-23T20:19:02.220Z,2.60
2022-08-23T20:21:30.003Z,2.80
2022-08-23T20:24:03.500Z,2.42
2022-08-23T20:26:33.728Z,2.42
2022-08-23T20:29:01.658Z,2.22
2022-08-23T20:31:33.099Z,2.30
2022-08-23T20:34:00.979Z,2.40
2022-08-23T20:36:28.831Z,2.47
2022-08-23T20:38:59.788Z,2.42
2022-08-23T20:41:28.064Z,2.40
2022-08-23T20:43:56.239Z,2.38
2022-08-23T20:46:24.717Z,2.90
2022-08-23T20:48:53.968Z,2.40
2022-08-23T20:51:21.760Z,2.25
2022-08-23T20:53:49.283Z,2.40
2022-08-23T20:56:17.502Z,2.40
2022-08-23T20:58:47.852Z,2.30
2022-08-23T21:01:16.774Z,2.65
2022-08-23T21:03:44.295Z,2.42
2022-08-23T21:06:20.015Z,3.13
2022-08-23T21:08:49.148Z,3.22
2022-08-23T21:11:16.683Z,3.47
2022-08-23T21:13:49.044Z,3.63
2022-08-23T21:16:17.961Z,3.30
2022-08-23T21:18:45.582Z,3.08
2022-08-23T21:21:13.617Z,3.22
2022-08-23T21:23:42.941Z,3.22
2022-08-23T21:26:10.609Z,2.97
2022-08-23T21:28:38.062Z,2.55
2022-08-23T21:31:07.789Z,2.30
2022-08-23T21:33:39.788Z,2.20
2022-08-23T21:36:08.288Z,2.42
2022-08-23T21:38:35.888Z,2.75
2022-08-23T21:41:11.532Z,3.10
2022-08-23T21:43:40.596Z,2.97
2022-08-23T21:46:08.391Z,3.38
2022-08-23T21:48:35.846Z,3.13
2022-08-23T21:51:03.318Z,3.15
2022-08-23T21:53:31.784Z,2.72
2022-08-23T21:55:59.205Z,2.65
2022-08-23T21:58:27.958Z,3.05
2022-08-23T22:00:55.363Z,3.28
2022-08-23T22:03:23.124Z,3.38
2022-08-23T22:05:50.809Z,3.03
2022-08-23T22:08:18.235Z,2.80
2022-08-23T22:10:57.115Z,2.70
2022-08-23T22:13:25.716Z,2.67
2022-08-23T22:15:54.839Z,2.55
2022-08-23T22:18:22.316Z,2.40
2022-08-23T22:20:49.793Z,2.50
2022-08-23T22:23:17.235Z,2.70
2022-08-23T22:25:44.900Z,2.90
2022-08-23T22:28:12.448Z,2.83
2022-08-23T22:30:42.477Z,2.75
2022-08-23T22:33:12.951Z,3.00
2022-08-23T22:35:40.423Z,2.90
2022-08-23T22:38:14.086Z,3.05
2022-08-23T22:40:48.450Z,3.03
2022-08-23T22:43:16.240Z,2.95
2022-08-23T22:45:53.959Z,3.05
2022-08-23T22:48:23.764Z,3.13
2022-08-23T22:50:52.144Z,3.00
2022-08-23T22:53:19.791Z,3.35
2022-08-23T22:55:51.019Z,3.42
2022-08-23T22:58:19.035Z,3.67
2022-08-23T23:00:47.116Z,3.70
2022-08-23T23:03:14.704Z,3.35
2022-08-23T23:05:43.433Z,3.58
2022-08-23T23:08:28.889Z,3.38
2022-08-23T23:10:58.133Z,3.28
2022-08-23T23:13:29.325Z,3.30
2022-08-23T23:15:57.497Z,3.10
2022-08-23T23:18:26.050Z,3.10
2022-08-23T23:20:58.087Z,3.50
2022-08-23T23:23:25.801Z,3.40
2022-08-23T23:25:53.713Z,3.42
2022-08-23T23:28:21.737Z,3.83
2022-08-23T23:30:52.098Z,4.28
2022-08-23T23:33:20.907Z,4.50
2022-08-23T23:35:49.738Z,4.55
2022-08-23T23:38:19.266Z,4.50
2022-08-23T23:40:46.761Z,4.00
2022-08-23T23:43:14.172Z,4.03
2022-08-23T23:45:42.346Z,4.53
2022-08-23T23:48:10.139Z,5.30
2022-08-23T23:50:45.335Z,6.28
2022-08-23T23:53:14.796Z,7.82
2022-08-23T23:55:44.607Z,7.90
2022-08-23T23:58:12.552Z,7.60
